Terminal Aerodrome Forecast
Issued by NWS Jackson, MS

Home | Current Version | Previous Version | Text Only | Print | Product List | Glossary On
Versions: 1 2 3 4 5 6 7 8 9 10 11 12 13 14 15 16 17
000
FTUS44 KJAN 291150 RRB
TAFHBG
TAF
KHBG 291150Z 2912/3012 15003KT P6SM FEW004 SCT030
     FM291430 16008KT P6SM BKN015 BKN030
     FM291600 17012G20KT P6SM SCT020 BKN030
     FM300100 16007KT P6SM SCT025 BKN050
     FM300700 14006KT 5SM BR BKN009 OVC020=

USA.gov is the U.S. government's official web portal to all federal, state and local government web resources and services.